createdAt,value
2023-04-09T00:02:37.234Z,37.07
2023-04-09T00:07:39.566Z,33.90
2023-04-09T00:12:41.535Z,34.60
2023-04-09T00:17:43.347Z,43.67
2023-04-09T00:22:45.338Z,39.10
2023-04-09T00:27:47.249Z,42.10
2023-04-09T00:32:49.705Z,39.43
2023-04-09T00:37:51.543Z,38.27
2023-04-09T00:42:53.654Z,40.93
2023-04-09T00:47:55.633Z,45.57
2023-04-09T00:52:57.850Z,41.73
2023-04-09T00:58:00.229Z,42.77
2023-04-09T01:03:04.724Z,40.40
2023-04-09T01:08:28.451Z,37.53
2023-04-09T01:13:52.789Z,36.57
2023-04-09T01:19:24.207Z,40.60
2023-04-09T01:25:13.943Z,37.53
2023-04-09T01:30:20.586Z,39.53
2023-04-09T01:35:23.334Z,42.13
2023-04-09T01:40:25.278Z,40.27
2023-04-09T01:45:27.660Z,38.10
2023-04-09T01:50:30.263Z,40.10
2023-04-09T01:55:32.138Z,41.70
2023-04-09T02:00:46.877Z,42.30
2023-04-09T02:06:36.856Z,42.07
2023-04-09T02:11:42.206Z,38.13
2023-04-09T02:16:45.025Z,40.63
2023-04-09T02:21:46.859Z,37.17
2023-04-09T02:26:48.829Z,36.03
2023-04-09T02:31:53.139Z,43.03
2023-04-09T02:36:55.110Z,49.03
2023-04-09T02:41:57.882Z,46.77
2023-04-09T02:47:02.157Z,57.03
2023-04-09T02:52:04.340Z,47.90
2023-04-09T02:57:06.143Z,44.33
2023-04-09T03:02:08.189Z,52.37
2023-04-09T03:07:10.179Z,54.67
2023-04-09T03:12:12.300Z,53.37
2023-04-09T03:17:14.306Z,51.50
2023-04-09T03:22:16.135Z,46.60
2023-04-09T03:27:18.325Z,46.97
2023-04-09T03:32:24.620Z,46.77
2023-04-09T03:37:26.825Z,53.33
2023-04-09T03:42:29.836Z,44.93
2023-04-09T03:47:33.282Z,42.90
2023-04-09T03:52:35.648Z,48.67
2023-04-09T03:57:41.697Z,44.90
2023-04-09T04:02:48.690Z,51.80
2023-04-09T04:07:52.186Z,47.47
2023-04-09T04:13:02.596Z,46.13
2023-04-09T04:18:11.419Z,52.87
2023-04-09T04:23:20.101Z,45.33
2023-04-09T04:28:34.904Z,48.83
2023-04-09T04:33:38.746Z,40.47
2023-04-09T04:38:45.510Z,49.27
2023-04-09T04:43:53.517Z,54.80
2023-04-09T04:48:57.995Z,53.77
2023-04-09T04:54:00.018Z,52.70
2023-04-09T04:59:03.078Z,51.53
2023-04-09T05:04:13.892Z,50.13
2023-04-09T05:09:16.304Z,56.30
2023-04-09T05:14:30.289Z,52.87
2023-04-09T05:19:32.258Z,57.53
2023-04-09T05:24:37.867Z,51.30
2023-04-09T05:29:41.057Z,59.70
2023-04-09T05:34:44.440Z,60.73
2023-04-09T05:39:46.469Z,63.53
2023-04-09T05:44:49.032Z,70.47
2023-04-09T05:49:54.576Z,64.07
2023-04-09T05:54:57.428Z,71.63
2023-04-09T06:00:08.946Z,63.63
2023-04-09T06:05:19.722Z,83.37
2023-04-09T06:10:24.941Z,96.97
2023-04-09T06:15:28.490Z,115.50
2023-04-09T06:20:30.587Z,107.90
2023-04-09T06:25:32.497Z,113.97
2023-04-09T06:30:36.840Z,100.43
2023-04-09T06:35:38.842Z,82.73
2023-04-09T06:40:40.703Z,82.67
2023-04-09T06:45:42.737Z,77.40
2023-04-09T06:50:45.356Z,69.90
2023-04-09T06:55:47.427Z,71.70
2023-04-09T07:00:49.831Z,68.07
2023-04-09T07:05:52.091Z,68.43
2023-04-09T07:10:54.252Z,61.87
2023-04-09T07:15:56.102Z,65.20
2023-04-09T07:20:58.055Z,56.57
2023-04-09T07:26:02.412Z,56.60
2023-04-09T07:31:04.246Z,57.47
2023-04-09T07:36:06.700Z,51.53
2023-04-09T07:41:11.300Z,56.87
2023-04-09T07:46:19.882Z,58.63
2023-04-09T07:51:22.160Z,50.63
2023-04-09T07:56:24.064Z,53.43
2023-04-09T08:01:26.669Z,49.80
2023-04-09T08:06:28.450Z,49.40
2023-04-09T08:11:30.541Z,49.70
2023-04-09T08:16:32.516Z,49.30
2023-04-09T08:21:37.057Z,46.83
2023-04-09T08:26:40.983Z,45.83
2023-04-09T08:31:43.174Z,43.60
2023-04-09T08:36:52.361Z,44.65
2023-04-09T08:42:00.032Z,41.17
2023-04-09T08:47:02.606Z,43.58
2023-04-09T08:52:07.068Z,41.95
2023-04-09T08:57:09.030Z,42.05
2023-04-09T09:02:11.700Z,40.15
2023-04-09T09:07:14.910Z,42.92
2023-04-09T09:12:40.389Z,39.35
2023-04-09T09:17:56.892Z,34.08
2023-04-09T09:22:59.915Z,35.53
2023-04-09T09:28:10.056Z,36.92
2023-04-09T09:33:13.388Z,34.35
2023-04-09T09:38:16.235Z,35.85
2023-04-09T09:43:18.288Z,32.42
2023-04-09T09:48:20.297Z,34.65
2023-04-09T09:53:24.619Z,30.00
2023-04-09T09:58:36.000Z,31.67
2023-04-09T10:03:39.724Z,29.35
2023-04-09T10:08:43.214Z,26.95
2023-04-09T10:13:52.806Z,28.50
2023-04-09T10:18:57.423Z,28.50
2023-04-09T10:24:00.272Z,24.08
2023-04-09T10:29:16.224Z,25.02
2023-04-09T10:34:20.582Z,22.45
2023-04-09T10:39:27.655Z,27.15
2023-04-09T10:44:32.609Z,26.88
2023-04-09T10:49:42.482Z,23.88
2023-04-09T10:54:46.301Z,25.27
2023-04-09T10:59:51.176Z,22.27
2023-04-09T11:05:12.048Z,24.98
2023-04-09T11:10:14.049Z,25.33
2023-04-09T11:15:18.228Z,21.25
2023-04-09T11:20:22.550Z,23.27
2023-04-09T11:25:26.560Z,23.25
2023-04-09T11:30:29.001Z,24.85
2023-04-09T11:35:34.280Z,25.75
2023-04-09T11:40:37.098Z,25.13
2023-04-09T11:45:39.170Z,21.63
2023-04-09T11:50:41.490Z,19.67
2023-04-09T11:55:43.405Z,23.02
2023-04-09T12:00:45.713Z,19.60
2023-04-09T12:05:50.883Z,19.30
2023-04-09T12:10:54.120Z,18.65
2023-04-09T12:20:59.099Z,18.42
2023-04-09T12:26:02.475Z,17.25
2023-04-09T12:31:04.558Z,17.67
2023-04-09T12:36:06.841Z,16.23
2023-04-09T12:41:09.909Z,17.20
2023-04-09T12:46:12.152Z,17.00
2023-04-09T12:51:15.969Z,16.50
2023-04-09T12:56:18.455Z,16.90
2023-04-09T13:01:20.489Z,12.75
2023-04-09T13:06:22.953Z,14.60
2023-04-09T13:11:24.786Z,12.85
2023-04-09T13:16:26.910Z,10.93
2023-04-09T13:21:28.966Z,12.32
2023-04-09T13:26:32.376Z,13.43
2023-04-09T13:31:37.009Z,12.65
2023-04-09T13:36:38.986Z,12.75
2023-04-09T13:41:40.906Z,11.38
2023-04-09T13:46:42.978Z,10.02
2023-04-09T13:51:45.122Z,11.98
2023-04-09T13:56:46.922Z,14.20
2023-04-09T14:01:49.257Z,11.98
2023-04-09T14:06:51.541Z,10.88
2023-04-09T14:11:55.102Z,11.70
2023-04-09T14:16:57.104Z,12.07
2023-04-09T14:21:59.226Z,10.15
2023-04-09T14:27:02.832Z,9.63
2023-04-09T14:32:04.718Z,12.35
2023-04-09T14:37:07.064Z,11.40
2023-04-09T14:42:09.148Z,11.90
2023-04-09T14:47:11.624Z,11.23
2023-04-09T14:52:13.857Z,11.52
2023-04-09T14:57:15.745Z,10.40
2023-04-09T15:02:17.736Z,9.43
2023-04-09T15:07:19.768Z,8.15
2023-04-09T15:12:21.772Z,9.73
2023-04-09T15:17:24.580Z,8.00
2023-04-09T15:22:26.533Z,8.05
2023-04-09T15:27:28.825Z,8.75
2023-04-09T15:32:31.200Z,8.80
2023-04-09T15:37:33.606Z,8.65
2023-04-09T15:42:35.926Z,7.35
2023-04-09T15:47:37.794Z,6.13
2023-04-09T15:52:39.756Z,7.95
2023-04-09T15:57:46.631Z,6.57
2023-04-09T16:02:48.747Z,5.47
2023-04-09T16:07:51.437Z,7.30
2023-04-09T16:12:53.864Z,6.60
2023-04-09T16:17:56.648Z,8.93
2023-04-09T16:22:58.653Z,5.10
2023-04-09T16:28:00.920Z,6.90
2023-04-09T16:33:03.138Z,6.63
2023-04-09T16:38:06.594Z,5.90
2023-04-09T16:43:08.630Z,5.90
2023-04-09T16:48:12.503Z,5.68
2023-04-09T16:53:14.874Z,7.15
2023-04-09T16:58:16.997Z,8.20
2023-04-09T17:03:19.124Z,6.95
2023-04-09T17:08:27.373Z,6.40
2023-04-09T17:13:34.216Z,6.78
2023-04-09T17:18:36.214Z,4.80
2023-04-09T17:23:38.251Z,5.53
2023-04-09T17:28:42.086Z,6.63
2023-04-09T17:33:47.558Z,6.15
2023-04-09T17:38:51.987Z,7.05
2023-04-09T17:43:54.524Z,5.18
2023-04-09T17:48:56.508Z,7.28
2023-04-09T17:53:58.418Z,7.05
2023-04-09T17:59:00.849Z,7.77
2023-04-09T18:04:03.139Z,6.13
2023-04-09T18:09:05.550Z,6.90
2023-04-09T18:14:08.218Z,6.70
2023-04-09T18:19:11.866Z,9.20
2023-04-09T18:24:13.911Z,10.40
2023-04-09T18:29:15.848Z,6.50
2023-04-09T18:34:18.100Z,5.60
2023-04-09T18:39:22.609Z,6.53
2023-04-09T18:44:24.696Z,8.20
2023-04-09T18:49:27.448Z,9.40
2023-04-09T18:54:29.244Z,7.37
2023-04-09T18:59:33.424Z,6.63
2023-04-09T19:04:37.032Z,7.80
2023-04-09T19:09:39.208Z,8.13
2023-04-09T19:14:41.297Z,6.33
2023-04-09T19:19:43.401Z,9.70
2023-04-09T19:24:45.590Z,8.40
2023-04-09T19:29:47.428Z,6.03
2023-04-09T19:34:49.521Z,7.40
2023-04-09T19:39:52.681Z,7.97
2023-04-09T19:44:54.484Z,6.87
2023-04-09T19:49:56.603Z,9.30
2023-04-09T19:54:58.439Z,9.90
2023-04-09T20:00:00.284Z,9.17
2023-04-09T20:05:02.851Z,9.47
2023-04-09T20:10:05.320Z,10.73
2023-04-09T20:15:09.903Z,11.00
2023-04-09T20:20:12.493Z,9.50
2023-04-09T20:25:14.511Z,9.80
2023-04-09T20:30:16.992Z,10.80
2023-04-09T20:35:18.940Z,8.97
2023-04-09T20:40:21.636Z,10.33
2023-04-09T20:45:23.531Z,11.50
2023-04-09T20:50:25.853Z,11.00
2023-04-09T20:55:27.808Z,12.87
2023-04-09T21:00:29.794Z,12.00
2023-04-09T21:05:32.396Z,10.50
2023-04-09T21:10:34.379Z,10.60
2023-04-09T21:15:36.226Z,11.47
2023-04-09T21:20:43.370Z,10.93
2023-04-09T21:25:45.338Z,13.53
2023-04-09T21:30:47.739Z,15.03
2023-04-09T21:35:53.677Z,12.40
2023-04-09T21:40:55.484Z,10.63
2023-04-09T21:45:57.576Z,11.60
2023-04-09T21:51:00.289Z,12.13
2023-04-09T21:56:04.702Z,11.33
2023-04-09T22:01:15.829Z,12.17
2023-04-09T22:06:21.074Z,9.57
2023-04-09T22:11:28.328Z,14.10
2023-04-09T22:16:30.910Z,12.10
2023-04-09T22:21:32.950Z,14.07
2023-04-09T22:26:34.792Z,11.80
2023-04-09T22:31:36.984Z,11.97
2023-04-09T22:36:39.147Z,13.13
2023-04-09T22:41:41.322Z,14.57
2023-04-09T22:46:43.251Z,15.67
2023-04-09T22:51:46.146Z,15.70
2023-04-09T22:56:48.866Z,14.63
2023-04-09T23:01:51.372Z,15.07
2023-04-09T23:06:53.472Z,13.93
2023-04-09T23:11:56.970Z,12.33
2023-04-09T23:16:59.091Z,14.63
2023-04-09T23:22:01.212Z,13.93
2023-04-09T23:27:03.340Z,13.13
2023-04-09T23:32:05.715Z,10.87
2023-04-09T23:37:08.024Z,11.70
2023-04-09T23:42:10.003Z,11.90
2023-04-09T23:47:13.787Z,12.43
2023-04-09T23:52:15.955Z,15.13
2023-04-09T23:57:18.154Z,12.63
